createdAt,value
2018-02-12T00:00:45.259Z,2.42
2018-02-12T00:03:13.670Z,2.41
2018-02-12T00:05:42.082Z,2.49
2018-02-12T00:08:10.530Z,2.40
2018-02-12T00:10:38.917Z,2.37
2018-02-12T00:13:07.314Z,2.43
2018-02-12T00:15:35.755Z,2.37
2018-02-12T00:18:04.169Z,2.49
2018-02-12T00:20:32.555Z,2.44
2018-02-12T00:23:01.016Z,2.48
2018-02-12T00:25:29.447Z,2.42
2018-02-12T00:27:57.833Z,2.49
2018-02-12T00:30:26.258Z,2.46
2018-02-12T00:32:54.654Z,2.45
2018-02-12T00:35:23.050Z,2.46
2018-02-12T00:37:51.541Z,2.47
2018-02-12T00:40:19.958Z,2.53
2018-02-12T00:42:48.358Z,2.47
2018-02-12T00:45:16.802Z,2.50
2018-02-12T00:47:45.195Z,2.50
2018-02-12T00:50:13.628Z,2.50
2018-02-12T00:52:42.065Z,2.49
2018-02-12T00:55:10.514Z,2.47
2018-02-12T00:57:38.911Z,2.52
2018-02-12T01:00:07.418Z,2.51
2018-02-12T01:02:35.846Z,2.58
2018-02-12T01:05:04.290Z,2.57
2018-02-12T01:07:32.717Z,2.48
2018-02-12T01:10:01.098Z,2.48
2018-02-12T01:12:29.487Z,2.44
2018-02-12T01:14:57.951Z,2.44
2018-02-12T01:17:26.344Z,2.42
2018-02-12T01:19:54.758Z,2.41
2018-02-12T01:22:23.373Z,2.35
2018-02-12T01:24:52.584Z,2.39
2018-02-12T01:27:21.005Z,2.33
2018-02-12T01:29:49.479Z,2.33
2018-02-12T01:32:17.877Z,2.39
2018-02-12T01:34:46.298Z,2.33
2018-02-12T01:37:14.750Z,2.42
2018-02-12T01:39:43.171Z,2.38
2018-02-12T01:42:11.622Z,2.38
2018-02-12T01:44:40.095Z,2.39
2018-02-12T01:47:08.494Z,2.31
2018-02-12T01:49:36.888Z,2.38
2018-02-12T01:52:05.372Z,2.32
2018-02-12T01:54:33.803Z,2.23
2018-02-12T01:57:02.238Z,2.16
2018-02-12T01:59:30.727Z,2.17
2018-02-12T02:01:59.136Z,2.07
2018-02-12T02:04:27.551Z,2.04
2018-02-12T02:06:55.987Z,1.94
2018-02-12T02:09:24.403Z,1.87
2018-02-12T02:11:52.812Z,1.83
2018-02-12T02:14:21.258Z,1.81
2018-02-12T02:16:49.667Z,1.81
2018-02-12T02:19:18.108Z,1.76
2018-02-12T02:21:46.554Z,1.72
2018-02-12T02:24:14.951Z,1.74
2018-02-12T02:26:43.342Z,1.69
2018-02-12T02:29:11.766Z,1.76
2018-02-12T02:31:40.179Z,1.78
2018-02-12T02:34:08.588Z,1.82
2018-02-12T02:36:37.044Z,1.85
2018-02-12T02:39:05.463Z,1.87
2018-02-12T02:41:33.868Z,1.83
2018-02-12T02:44:02.339Z,1.85
2018-02-12T02:46:30.746Z,1.88
2018-02-12T02:48:59.159Z,1.96
2018-02-12T02:51:27.622Z,1.88
2018-02-12T02:53:56.234Z,1.84
2018-02-12T02:56:24.653Z,1.86
2018-02-12T02:58:53.142Z,1.82
2018-02-12T03:01:21.572Z,1.73
2018-02-12T03:03:49.977Z,1.71
2018-02-12T03:06:18.441Z,1.73
2018-02-12T03:08:46.851Z,1.72
2018-02-12T03:11:15.259Z,1.76
2018-02-12T03:13:43.692Z,1.73
2018-02-12T03:16:12.110Z,1.79
2018-02-12T03:18:40.515Z,1.81
2018-02-12T03:21:08.993Z,1.86
2018-02-12T03:23:37.423Z,1.86
2018-02-12T03:26:05.829Z,1.89
2018-02-12T03:28:34.277Z,1.94
2018-02-12T03:31:03.078Z,1.91
2018-02-12T03:33:31.491Z,1.96
2018-02-12T03:35:59.925Z,1.94
2018-02-12T03:38:28.357Z,2.02
2018-02-12T03:40:56.769Z,2.04
2018-02-12T03:43:25.259Z,2.04
2018-02-12T03:45:53.723Z,2.07
2018-02-12T03:48:22.135Z,2.07
2018-02-12T03:50:50.599Z,2.01
2018-02-12T03:53:19.009Z,2.07
2018-02-12T03:55:47.406Z,2.00
2018-02-12T03:58:15.858Z,2.00
2018-02-12T04:00:44.323Z,2.04
2018-02-12T04:03:12.727Z,2.10
2018-02-12T04:05:41.169Z,2.02
2018-02-12T04:08:09.570Z,1.98
2018-02-12T04:10:37.965Z,2.00
2018-02-12T04:13:06.405Z,1.94
2018-02-12T04:15:34.802Z,1.89
2018-02-12T04:18:03.218Z,1.86
2018-02-12T04:20:31.674Z,1.88
2018-02-12T04:23:00.131Z,1.93
2018-02-12T04:25:28.564Z,1.92
2018-02-12T04:27:57.043Z,1.95
2018-02-12T04:30:25.460Z,1.93
2018-02-12T04:32:53.887Z,1.89
2018-02-12T04:35:22.329Z,1.91
2018-02-12T04:37:50.726Z,1.90
2018-02-12T04:40:19.138Z,1.91
2018-02-12T04:42:47.596Z,1.90
2018-02-12T04:45:15.981Z,1.86
2018-02-12T04:47:44.379Z,1.92
2018-02-12T04:50:12.814Z,1.88
2018-02-12T04:52:41.209Z,1.89
2018-02-12T04:55:09.665Z,1.81
2018-02-12T04:57:38.122Z,1.68
2018-02-12T05:00:06.565Z,1.66
2018-02-12T05:02:34.965Z,1.60
2018-02-12T05:05:03.658Z,1.51
2018-02-12T05:07:32.060Z,1.45
2018-02-12T05:10:00.475Z,1.47
2018-02-12T05:12:28.948Z,1.41
2018-02-12T05:14:57.352Z,1.45
2018-02-12T05:17:25.762Z,1.48
2018-02-12T05:19:54.210Z,1.53
2018-02-12T05:22:22.631Z,1.48
2018-02-12T05:24:51.051Z,1.57
2018-02-12T05:27:19.518Z,1.50
2018-02-12T05:29:47.930Z,1.59
2018-02-12T05:32:16.325Z,1.62
2018-02-12T05:34:44.777Z,1.68
2018-02-12T05:37:13.219Z,1.71
2018-02-12T05:39:41.662Z,1.75
2018-02-12T05:42:10.117Z,1.79
2018-02-12T05:44:38.557Z,1.78
2018-02-12T05:47:06.995Z,1.78
2018-02-12T05:49:35.463Z,1.73
2018-02-12T05:52:03.889Z,1.70
2018-02-12T05:54:32.289Z,1.70
2018-02-12T05:57:00.781Z,1.74
2018-02-12T05:59:29.209Z,1.69
2018-02-12T06:01:57.634Z,1.73
2018-02-12T06:04:26.098Z,1.79
2018-02-12T06:06:54.512Z,1.73
2018-02-12T06:09:22.935Z,1.77
2018-02-12T06:11:51.417Z,1.72
2018-02-12T06:14:19.831Z,1.73
2018-02-12T06:16:48.264Z,1.77
2018-02-12T06:19:16.715Z,1.85
2018-02-12T06:21:45.119Z,1.92
2018-02-12T06:24:13.543Z,1.90
2018-02-12T06:26:42.034Z,1.98
2018-02-12T06:29:10.456Z,1.95
2018-02-12T06:31:38.905Z,1.93
2018-02-12T06:34:07.354Z,1.94
2018-02-12T06:36:35.824Z,1.96
2018-02-12T06:39:04.275Z,1.95
2018-02-12T06:41:32.706Z,1.93
2018-02-12T06:44:01.106Z,1.96
2018-02-12T06:46:29.500Z,1.95
2018-02-12T06:48:57.942Z,1.87
2018-02-12T06:51:26.362Z,1.90
2018-02-12T06:53:54.753Z,1.93
2018-02-12T06:56:23.193Z,1.88
2018-02-12T06:58:51.603Z,1.93
2018-02-12T07:01:20.037Z,1.93
2018-02-12T07:03:48.474Z,1.87
2018-02-12T07:06:16.872Z,1.80
2018-02-12T07:08:45.263Z,1.74
2018-02-12T07:11:13.691Z,1.71
2018-02-12T07:13:42.094Z,1.68
2018-02-12T07:16:10.511Z,1.66
2018-02-12T07:18:38.941Z,1.65
2018-02-12T07:21:07.333Z,1.63
2018-02-12T07:23:35.762Z,1.62
2018-02-12T07:26:04.248Z,1.62
2018-02-12T07:28:32.684Z,1.64
2018-02-12T07:31:01.100Z,1.63
2018-02-12T07:33:29.546Z,1.57
2018-02-12T07:35:57.947Z,1.54
2018-02-12T07:38:26.334Z,1.60
2018-02-12T07:40:54.766Z,1.65
2018-02-12T07:43:23.180Z,1.62
2018-02-12T07:45:51.563Z,1.61
2018-02-12T07:48:20.029Z,1.63
2018-02-12T07:50:48.422Z,1.60
2018-02-12T07:53:16.846Z,1.62
2018-02-12T07:55:45.304Z,1.65
2018-02-12T07:58:13.704Z,1.65
2018-02-12T08:00:42.134Z,1.64
2018-02-12T08:03:10.570Z,1.69
2018-02-12T08:05:38.968Z,1.70
2018-02-12T08:08:07.354Z,1.70
2018-02-12T08:10:35.791Z,1.72
2018-02-12T08:13:04.215Z,1.68
2018-02-12T08:15:32.619Z,1.67
2018-02-12T08:18:01.051Z,1.65
2018-02-12T08:20:29.442Z,1.59
2018-02-12T08:22:57.858Z,1.66
2018-02-12T08:25:26.284Z,1.72
2018-02-12T08:27:54.688Z,1.74
2018-02-12T08:30:26.899Z,1.79
2018-02-12T08:32:55.300Z,1.87
2018-02-12T08:35:23.718Z,2.05
2018-02-12T08:37:52.171Z,2.04
2018-02-12T08:40:20.582Z,2.08
2018-02-12T08:42:48.998Z,2.12
2018-02-12T08:45:17.448Z,2.19
2018-02-12T08:47:45.855Z,2.21
2018-02-12T08:50:14.259Z,2.10
2018-02-12T08:52:42.819Z,2.15
2018-02-12T08:55:11.219Z,2.17
2018-02-12T08:57:39.647Z,2.28
2018-02-12T09:00:08.085Z,2.31
2018-02-12T09:02:36.479Z,2.29
2018-02-12T09:05:04.874Z,2.30
2018-02-12T09:07:33.456Z,2.34
2018-02-12T09:10:01.852Z,2.35
2018-02-12T09:12:30.250Z,2.44
2018-02-12T09:14:58.677Z,2.36
2018-02-12T09:17:27.092Z,2.38
2018-02-12T09:19:55.488Z,2.35
2018-02-12T09:22:23.928Z,2.35
2018-02-12T09:24:52.345Z,2.34
2018-02-12T09:27:20.746Z,2.31
2018-02-12T09:29:49.174Z,2.32
2018-02-12T09:32:17.557Z,2.31
2018-02-12T09:34:45.944Z,2.30
2018-02-12T09:37:14.389Z,2.30
2018-02-12T09:39:42.794Z,2.35
2018-02-12T09:42:11.214Z,2.41
2018-02-12T09:44:39.695Z,2.41
2018-02-12T09:47:08.331Z,2.45
2018-02-12T09:49:36.735Z,2.43
2018-02-12T09:52:05.185Z,2.37
2018-02-12T09:54:33.583Z,2.32
2018-02-12T09:57:01.995Z,2.41
2018-02-12T09:59:31.371Z,2.46
2018-02-12T10:01:59.778Z,2.41
2018-02-12T10:04:28.157Z,2.46
2018-02-12T10:06:56.603Z,2.52
2018-02-12T10:09:25.000Z,2.87
2018-02-12T10:11:53.426Z,2.94
2018-02-12T10:14:21.881Z,3.13
2018-02-12T10:16:50.263Z,3.08
2018-02-12T10:19:18.646Z,3.06
2018-02-12T10:21:47.077Z,3.03
2018-02-12T10:24:15.466Z,2.93
2018-02-12T10:26:43.885Z,3.05
2018-02-12T10:29:12.316Z,3.05
2018-02-12T10:31:40.733Z,2.96
2018-02-12T10:34:09.131Z,2.94
2018-02-12T10:36:37.590Z,2.87
2018-02-12T10:39:06.001Z,2.89
2018-02-12T10:41:34.405Z,2.99
2018-02-12T10:44:02.835Z,2.95
2018-02-12T10:46:31.252Z,2.96
2018-02-12T10:48:59.648Z,3.00
2018-02-12T10:51:28.085Z,2.89
2018-02-12T10:53:56.489Z,2.88
2018-02-12T10:56:24.902Z,2.90
2018-02-12T10:58:53.529Z,2.76
2018-02-12T11:01:21.919Z,2.84
2018-02-12T11:03:50.299Z,2.89
2018-02-12T11:06:18.757Z,2.89
2018-02-12T11:08:47.188Z,2.78
2018-02-12T11:11:15.599Z,2.81
2018-02-12T11:13:44.048Z,2.65
2018-02-12T11:16:12.429Z,2.66
2018-02-12T11:18:40.813Z,2.71
2018-02-12T11:21:09.241Z,2.70
2018-02-12T11:23:37.637Z,2.69
2018-02-12T11:26:06.051Z,2.78
2018-02-12T11:28:34.502Z,2.81
2018-02-12T11:31:02.893Z,2.87
2018-02-12T11:33:31.290Z,2.94
2018-02-12T11:35:59.740Z,2.96
2018-02-12T11:38:28.118Z,3.03
2018-02-12T11:40:56.526Z,3.07
2018-02-12T11:43:24.961Z,3.08
2018-02-12T11:45:53.359Z,3.16
2018-02-12T11:48:21.787Z,3.33
2018-02-12T11:50:50.383Z,3.47
2018-02-12T11:53:18.810Z,3.51
2018-02-12T11:55:47.211Z,3.62
2018-02-12T11:58:15.638Z,3.57
2018-02-12T12:00:44.059Z,3.64
2018-02-12T12:03:12.508Z,4.12
2018-02-12T12:05:40.945Z,4.40
2018-02-12T12:08:09.323Z,4.31
2018-02-12T12:10:37.709Z,4.25
2018-02-12T12:13:06.128Z,4.08
2018-02-12T12:15:34.501Z,3.97
2018-02-12T12:18:02.899Z,3.88
2018-02-12T12:20:31.351Z,3.75
2018-02-12T12:22:59.749Z,3.77
2018-02-12T12:25:28.129Z,3.88
2018-02-12T12:27:56.564Z,3.91
2018-02-12T12:30:24.971Z,3.84
2018-02-12T12:32:53.345Z,3.85
2018-02-12T12:35:21.795Z,3.94
2018-02-12T12:37:50.213Z,4.10
2018-02-12T12:40:18.599Z,4.07
2018-02-12T12:42:47.022Z,3.90
2018-02-12T12:45:15.409Z,3.89
2018-02-12T12:47:43.805Z,3.90
2018-02-12T12:50:12.239Z,3.96
2018-02-12T12:52:40.636Z,4.20
2018-02-12T12:55:09.032Z,4.37
2018-02-12T12:57:37.465Z,4.27
2018-02-12T13:00:05.880Z,4.26
2018-02-12T13:02:34.256Z,4.19
2018-02-12T13:05:02.706Z,4.27
2018-02-12T13:07:31.131Z,4.26
2018-02-12T13:09:59.524Z,4.42
2018-02-12T13:12:27.947Z,4.34
2018-02-12T13:14:56.367Z,4.36
2018-02-12T13:17:24.759Z,4.39
2018-02-12T13:19:53.236Z,4.00
2018-02-12T13:22:21.647Z,3.63
2018-02-12T13:24:50.655Z,3.44
2018-02-12T13:27:19.091Z,3.49
2018-02-12T13:29:47.469Z,3.45
2018-02-12T13:32:15.867Z,3.51
2018-02-12T13:34:44.317Z,3.50
2018-02-12T13:37:12.696Z,3.68
2018-02-12T13:39:41.095Z,3.74
2018-02-12T13:42:09.533Z,4.02
2018-02-12T13:44:37.980Z,4.16
2018-02-12T13:47:06.367Z,4.61
2018-02-12T13:49:34.794Z,4.80
2018-02-12T13:52:03.220Z,5.00
2018-02-12T13:54:31.642Z,5.14
2018-02-12T13:57:00.106Z,5.11
2018-02-12T13:59:28.535Z,4.78
2018-02-12T14:01:56.963Z,4.53
2018-02-12T14:04:25.401Z,4.37
2018-02-12T14:06:53.790Z,4.42
2018-02-12T14:09:22.189Z,4.55
2018-02-12T14:11:50.621Z,4.84
2018-02-12T14:14:19.016Z,4.85
2018-02-12T14:16:47.408Z,4.98
2018-02-12T14:19:15.856Z,4.94
2018-02-12T14:21:44.238Z,4.96
2018-02-12T14:24:12.623Z,4.99
2018-02-12T14:26:41.050Z,5.12
2018-02-12T14:29:09.498Z,5.21
2018-02-12T14:31:37.900Z,5.09
2018-02-12T14:34:06.350Z,4.87
2018-02-12T14:36:34.767Z,4.61
2018-02-12T14:39:03.189Z,4.58
2018-02-12T14:41:31.623Z,4.66
2018-02-12T14:44:00.017Z,4.73
2018-02-12T14:46:28.413Z,4.85
2018-02-12T14:48:56.850Z,5.00
2018-02-12T14:51:25.263Z,5.11
2018-02-12T14:53:53.683Z,5.21
2018-02-12T14:56:22.146Z,5.18
2018-02-12T14:58:50.606Z,5.03
2018-02-12T15:01:19.003Z,4.98
2018-02-12T15:03:47.447Z,4.75
2018-02-12T15:06:15.853Z,4.45
2018-02-12T15:08:44.244Z,4.19
2018-02-12T15:11:12.708Z,4.14
2018-02-12T15:13:41.150Z,4.39
2018-02-12T15:16:09.549Z,4.54
2018-02-12T15:18:38.021Z,4.63
2018-02-12T15:21:06.431Z,4.88
2018-02-12T15:23:34.840Z,4.86
2018-02-12T15:26:03.270Z,4.60
2018-02-12T15:28:31.686Z,4.41
2018-02-12T15:31:00.085Z,4.14
2018-02-12T15:33:28.525Z,4.00
2018-02-12T15:35:56.944Z,3.82
2018-02-12T15:38:25.343Z,3.54
2018-02-12T15:40:53.802Z,3.36
2018-02-12T15:43:22.198Z,3.32
2018-02-12T15:45:50.620Z,3.26
2018-02-12T15:48:19.057Z,3.21
2018-02-12T15:50:47.455Z,3.15
2018-02-12T15:53:15.834Z,3.12
2018-02-12T15:55:44.294Z,3.12
2018-02-12T15:58:12.687Z,3.05
2018-02-12T16:00:41.071Z,3.07
2018-02-12T16:03:09.507Z,3.08
2018-02-12T16:05:37.918Z,3.13
2018-02-12T16:08:06.317Z,3.10
2018-02-12T16:10:34.834Z,3.13
2018-02-12T16:13:03.216Z,3.12
2018-02-12T16:15:31.617Z,3.10
2018-02-12T16:18:00.049Z,3.10
2018-02-12T16:20:28.448Z,3.02
2018-02-12T16:22:56.850Z,2.91
2018-02-12T16:25:25.311Z,2.89
2018-02-12T16:27:53.717Z,2.97
2018-02-12T16:30:22.131Z,2.92
2018-02-12T16:32:50.585Z,2.93
2018-02-12T16:35:18.969Z,2.95
2018-02-12T16:37:47.357Z,3.00
2018-02-12T16:40:15.804Z,3.03
2018-02-12T16:42:44.198Z,3.11
2018-02-12T16:45:12.590Z,3.10
2018-02-12T16:47:41.218Z,3.01
2018-02-12T16:50:09.695Z,3.00
2018-02-12T16:52:38.066Z,2.76
2018-02-12T16:55:06.490Z,2.69
2018-02-12T16:57:34.894Z,2.68
2018-02-12T17:00:03.326Z,2.69
2018-02-12T17:02:31.831Z,2.62
2018-02-12T17:05:00.214Z,2.57
2018-02-12T17:07:28.627Z,2.52
2018-02-12T17:09:57.079Z,2.56
2018-02-12T17:12:25.466Z,2.25
2018-02-12T17:14:53.854Z,1.87
2018-02-12T17:17:22.308Z,1.80
2018-02-12T17:19:50.727Z,1.79
2018-02-12T17:22:19.154Z,1.58
2018-02-12T17:24:47.603Z,1.45
2018-02-12T17:27:16.014Z,1.42
2018-02-12T17:29:44.403Z,1.39
2018-02-12T17:32:12.843Z,1.36
2018-02-12T17:34:41.231Z,1.44
2018-02-12T17:37:09.620Z,1.55
2018-02-12T17:39:38.065Z,1.64
2018-02-12T17:42:06.453Z,1.67
2018-02-12T17:44:34.854Z,1.74
2018-02-12T17:47:03.492Z,1.78
2018-02-12T17:49:31.946Z,1.74
2018-02-12T17:52:00.329Z,1.77
2018-02-12T17:54:28.808Z,1.72
2018-02-12T17:56:57.191Z,1.62
2018-02-12T17:59:25.591Z,1.55
2018-02-12T18:01:54.051Z,1.50
2018-02-12T18:04:22.494Z,1.57
2018-02-12T18:06:50.927Z,1.41
2018-02-12T18:09:19.390Z,1.40
2018-02-12T18:11:47.783Z,1.23
2018-02-12T18:14:16.175Z,1.22
2018-02-12T18:16:44.624Z,1.15
2018-02-12T18:19:13.147Z,1.19
2018-02-12T18:21:41.858Z,1.26
2018-02-12T18:24:10.313Z,1.26
2018-02-12T18:26:38.750Z,1.15
2018-02-12T18:29:07.138Z,1.16
2018-02-12T18:31:35.562Z,1.14
2018-02-12T18:34:03.994Z,1.16
2018-02-12T18:36:32.387Z,1.13
2018-02-12T18:39:01.028Z,1.26
2018-02-12T18:41:29.396Z,1.22
2018-02-12T18:43:57.783Z,1.41
2018-02-12T18:46:26.255Z,1.30
2018-02-12T18:48:54.671Z,1.29
2018-02-12T18:51:23.099Z,1.23
2018-02-12T18:53:51.547Z,1.16
2018-02-12T18:56:19.936Z,1.09
2018-02-12T18:58:48.356Z,0.99
2018-02-12T19:01:16.788Z,0.93
2018-02-12T19:03:45.177Z,0.95
2018-02-12T19:06:13.573Z,0.92
2018-02-12T19:08:41.981Z,0.92
2018-02-12T19:11:10.389Z,0.94
2018-02-12T19:13:38.815Z,0.93
2018-02-12T19:16:07.282Z,0.94
2018-02-12T19:18:35.696Z,0.98
2018-02-12T19:21:04.083Z,0.99
2018-02-12T19:23:32.583Z,0.93
2018-02-12T19:26:00.993Z,0.93
2018-02-12T19:28:29.381Z,0.97
2018-02-12T19:30:57.847Z,1.01
2018-02-12T19:33:26.279Z,0.98
2018-02-12T19:35:54.671Z,0.94
2018-02-12T19:38:23.093Z,0.91
2018-02-12T19:40:51.491Z,0.88
2018-02-12T19:43:19.919Z,0.90
2018-02-12T19:45:48.357Z,0.86
2018-02-12T19:48:16.781Z,0.92
2018-02-12T19:50:45.206Z,0.95
2018-02-12T19:53:13.641Z,0.93
2018-02-12T19:55:42.056Z,0.89
2018-02-12T19:58:10.461Z,0.92
2018-02-12T20:00:39.102Z,1.01
2018-02-12T20:03:07.508Z,0.99
2018-02-12T20:05:35.932Z,0.90
2018-02-12T20:08:04.395Z,0.82
2018-02-12T20:10:32.858Z,0.81
2018-02-12T20:13:01.300Z,0.76
2018-02-12T20:15:29.782Z,0.75
2018-02-12T20:17:58.190Z,0.69
2018-02-12T20:20:26.588Z,0.76
2018-02-12T20:22:55.048Z,0.75
2018-02-12T20:25:23.456Z,0.73
2018-02-12T20:27:51.858Z,0.74
2018-02-12T20:30:20.333Z,0.68
2018-02-12T20:32:48.739Z,0.73
2018-02-12T20:35:17.166Z,0.67
2018-02-12T20:37:45.678Z,0.65
2018-02-12T20:40:14.129Z,0.69
2018-02-12T20:42:42.574Z,0.66
2018-02-12T20:45:11.291Z,0.63
2018-02-12T20:47:39.731Z,0.56
2018-02-12T20:50:08.139Z,0.51
2018-02-12T20:52:36.768Z,0.53
2018-02-12T20:55:05.183Z,0.46
2018-02-12T20:57:33.566Z,0.42
2018-02-12T21:00:02.007Z,0.37
2018-02-12T21:02:30.420Z,0.35
2018-02-12T21:04:58.812Z,0.34
2018-02-12T21:07:27.249Z,0.28
2018-02-12T21:09:55.670Z,0.51
2018-02-12T21:12:24.098Z,0.51
2018-02-12T21:14:52.577Z,0.51
2018-02-12T21:17:20.966Z,0.56
2018-02-12T21:19:49.371Z,0.51
2018-02-12T21:22:17.798Z,0.46
2018-02-12T21:24:46.194Z,0.47
2018-02-12T21:27:14.617Z,0.44
2018-02-12T21:29:43.078Z,0.53
2018-02-12T21:32:11.508Z,0.49
2018-02-12T21:34:39.918Z,0.50
2018-02-12T21:37:08.367Z,0.46
2018-02-12T21:39:36.765Z,0.39
2018-02-12T21:42:05.178Z,0.44
2018-02-12T21:44:33.654Z,0.44
2018-02-12T21:47:02.085Z,0.44
2018-02-12T21:49:30.476Z,0.41
2018-02-12T21:51:58.927Z,0.35
2018-02-12T21:54:27.349Z,0.29
2018-02-12T21:56:55.757Z,0.25
2018-02-12T21:59:24.189Z,0.21
2018-02-12T22:01:52.620Z,0.13
2018-02-12T22:04:21.031Z,0.12
2018-02-12T22:06:49.487Z,0.12
2018-02-12T22:09:17.878Z,0.11
2018-02-12T22:11:46.298Z,0.13
2018-02-12T22:14:14.729Z,0.19
2018-02-12T22:16:43.134Z,0.24
2018-02-12T22:19:11.560Z,0.27
2018-02-12T22:21:40.022Z,0.26
2018-02-12T22:24:08.409Z,0.33
2018-02-12T22:26:36.799Z,0.27
2018-02-12T22:29:05.250Z,0.26
2018-02-12T22:31:33.648Z,0.34
2018-02-12T22:34:02.043Z,0.22
2018-02-12T22:36:30.494Z,0.14
2018-02-12T22:38:58.914Z,0.08
2018-02-12T22:41:27.324Z,0.06
2018-02-12T22:43:55.912Z,0.02
2018-02-12T22:46:24.376Z,-0.02
2018-02-12T22:48:52.823Z,-0.03
2018-02-12T22:51:21.286Z,0.04
2018-02-12T22:53:49.698Z,0.10
2018-02-12T22:56:18.093Z,0.15
2018-02-12T22:58:46.567Z,0.14
2018-02-12T23:01:14.968Z,0.29
2018-02-12T23:03:43.354Z,0.29
2018-02-12T23:06:11.789Z,0.22
2018-02-12T23:08:40.183Z,0.23
2018-02-12T23:11:08.602Z,0.19
2018-02-12T23:13:37.042Z,0.18
2018-02-12T23:16:05.469Z,0.13
2018-02-12T23:18:33.874Z,0.10
2018-02-12T23:21:02.313Z,0.04
2018-02-12T23:23:30.703Z,0.00
2018-02-12T23:25:59.162Z,-0.07
2018-02-12T23:28:27.613Z,-0.11
2018-02-12T23:30:56.028Z,-0.08
2018-02-12T23:33:24.445Z,-0.11
2018-02-12T23:35:52.893Z,-0.13
2018-02-12T23:38:21.324Z,-0.19
2018-02-12T23:40:49.740Z,-0.15
2018-02-12T23:43:18.210Z,-0.17
2018-02-12T23:45:46.609Z,0.15
2018-02-12T23:48:15.010Z,0.20
2018-02-12T23:50:43.486Z,0.09
2018-02-12T23:53:11.891Z,0.09
2018-02-12T23:55:40.283Z,-0.02
2018-02-12T23:58:08.750Z,0.00
